createdAt,value
2019-06-26T00:01:33.590Z,21.63
2019-06-26T00:04:02.194Z,20.90
2019-06-26T00:06:30.911Z,20.83
2019-06-26T00:08:59.528Z,21.10
2019-06-26T00:11:28.221Z,20.53
2019-06-26T00:13:56.936Z,20.03
2019-06-26T00:16:25.610Z,19.20
2019-06-26T00:18:54.329Z,19.73
2019-06-26T00:21:22.986Z,20.70
2019-06-26T00:23:51.618Z,18.93
2019-06-26T00:26:20.309Z,19.83
2019-06-26T00:28:48.966Z,19.87
2019-06-26T00:31:17.636Z,18.17
2019-06-26T00:33:46.338Z,19.00
2019-06-26T00:36:14.945Z,18.93
2019-06-26T00:38:43.691Z,19.70
2019-06-26T00:41:12.362Z,20.20
2019-06-26T00:43:42.586Z,20.90
2019-06-26T00:46:11.309Z,19.57
2019-06-26T00:48:40.319Z,20.20
2019-06-26T00:51:09.034Z,19.87
2019-06-26T00:53:37.668Z,19.80
2019-06-26T00:56:06.476Z,19.27
2019-06-26T00:58:35.134Z,19.60
2019-06-26T01:01:03.743Z,20.57
2019-06-26T01:03:32.463Z,20.40
2019-06-26T01:06:02.450Z,20.47
2019-06-26T01:08:31.071Z,21.57
2019-06-26T01:10:59.748Z,21.20
2019-06-26T01:13:28.402Z,21.03
2019-06-26T01:15:57.019Z,20.57
2019-06-26T01:18:25.692Z,21.03
2019-06-26T01:20:54.415Z,21.83
2019-06-26T01:23:23.096Z,21.07
2019-06-26T01:25:51.798Z,20.33
2019-06-26T01:28:20.466Z,21.00
2019-06-26T01:30:49.173Z,20.87
2019-06-26T01:33:17.776Z,21.53
2019-06-26T01:35:46.494Z,21.83
2019-06-26T01:38:15.213Z,22.10
2019-06-26T01:40:43.843Z,22.10
2019-06-26T01:43:12.476Z,20.93
2019-06-26T01:45:41.149Z,21.17
2019-06-26T01:48:09.851Z,21.43
2019-06-26T01:50:38.477Z,21.90
2019-06-26T01:53:07.087Z,21.93
2019-06-26T01:55:35.807Z,22.13
2019-06-26T01:58:04.421Z,22.07
2019-06-26T02:00:33.299Z,22.47
2019-06-26T02:03:02.105Z,22.53
2019-06-26T02:05:30.923Z,22.03
2019-06-26T02:07:59.626Z,22.27
2019-06-26T02:10:28.315Z,22.07
2019-06-26T02:12:57.010Z,22.37
2019-06-26T02:15:25.892Z,21.77
2019-06-26T02:17:54.627Z,23.37
2019-06-26T02:20:23.264Z,21.70
2019-06-26T02:22:51.956Z,22.77
2019-06-26T02:25:20.700Z,22.93
2019-06-26T02:27:49.407Z,22.90
2019-06-26T02:30:18.243Z,21.67
2019-06-26T02:32:46.911Z,22.73
2019-06-26T02:35:15.711Z,21.67
2019-06-26T02:37:44.407Z,22.63
2019-06-26T02:40:13.503Z,22.37
2019-06-26T02:42:42.195Z,21.83
2019-06-26T02:45:11.021Z,22.73
2019-06-26T02:47:39.723Z,23.13
2019-06-26T02:50:11.987Z,23.17
2019-06-26T02:52:40.706Z,22.77
2019-06-26T02:55:11.493Z,21.50
2019-06-26T02:57:40.180Z,22.80
2019-06-26T03:00:09.952Z,23.07
2019-06-26T03:02:38.564Z,22.90
2019-06-26T03:05:07.718Z,23.10
2019-06-26T03:07:36.406Z,22.40
2019-06-26T03:10:06.963Z,21.97
2019-06-26T03:12:35.969Z,23.57
2019-06-26T03:15:09.873Z,22.03
2019-06-26T03:17:54.175Z,23.47
2019-06-26T03:20:10.535Z,22.87
2019-06-26T03:22:39.158Z,21.37
2019-06-26T03:25:08.098Z,22.77
2019-06-26T03:27:36.708Z,22.63
2019-06-26T03:30:06.600Z,22.43
2019-06-26T03:32:35.311Z,24.10
2019-06-26T03:35:04.289Z,23.27
2019-06-26T03:37:32.911Z,22.47
2019-06-26T03:40:01.803Z,21.97
2019-06-26T03:42:30.627Z,22.40
2019-06-26T03:44:59.241Z,22.33
2019-06-26T03:47:27.919Z,22.10
2019-06-26T03:49:56.714Z,22.10
2019-06-26T03:52:25.454Z,21.90
2019-06-26T03:54:54.155Z,22.87
2019-06-26T03:57:22.842Z,22.17
2019-06-26T03:59:51.485Z,22.20
2019-06-26T04:02:20.216Z,21.97
2019-06-26T04:04:48.875Z,22.20
2019-06-26T04:07:17.503Z,22.47
2019-06-26T04:09:46.175Z,22.80
2019-06-26T04:12:14.823Z,22.70
2019-06-26T04:14:43.503Z,22.80
2019-06-26T04:17:12.215Z,22.00
2019-06-26T04:19:40.881Z,22.00
2019-06-26T04:22:09.536Z,21.90
2019-06-26T04:24:38.233Z,22.40
2019-06-26T04:27:06.886Z,21.47
2019-06-26T04:29:35.594Z,20.87
2019-06-26T04:32:04.264Z,20.30
2019-06-26T04:34:33.867Z,22.07
2019-06-26T04:37:02.555Z,21.53
2019-06-26T04:39:31.263Z,21.43
2019-06-26T04:41:59.900Z,21.07
2019-06-26T04:44:28.514Z,20.27
2019-06-26T04:46:58.681Z,20.60
2019-06-26T04:49:27.354Z,21.23
2019-06-26T04:51:56.038Z,20.80
2019-06-26T04:54:24.668Z,20.17
2019-06-26T04:56:53.312Z,20.23
2019-06-26T04:59:21.992Z,20.20
2019-06-26T05:01:50.687Z,20.87
2019-06-26T05:04:19.297Z,20.27
2019-06-26T05:06:48.081Z,20.50
2019-06-26T05:09:16.844Z,19.90
2019-06-26T05:11:45.671Z,20.27
2019-06-26T05:14:14.362Z,20.67
2019-06-26T05:16:43.012Z,20.37
2019-06-26T05:19:14.483Z,20.17
2019-06-26T05:21:43.087Z,19.27
2019-06-26T05:24:11.701Z,20.47
2019-06-26T05:26:40.404Z,20.37
2019-06-26T05:29:09.010Z,19.83
2019-06-26T05:31:37.786Z,18.27
2019-06-26T05:34:09.875Z,19.87
2019-06-26T05:36:36.951Z,19.50
2019-06-26T05:39:06.996Z,18.33
2019-06-26T05:41:35.698Z,19.10
2019-06-26T05:44:05.326Z,18.57
2019-06-26T05:46:33.983Z,18.10
2019-06-26T05:49:02.657Z,17.67
2019-06-26T05:51:31.368Z,18.30
2019-06-26T05:54:00.151Z,18.70
2019-06-26T05:56:28.897Z,17.93
2019-06-26T05:58:57.838Z,17.53
2019-06-26T06:01:26.471Z,16.90
2019-06-26T06:03:55.146Z,17.23
2019-06-26T06:06:23.903Z,16.80
2019-06-26T06:08:52.623Z,17.40
2019-06-26T06:11:21.271Z,16.13
2019-06-26T06:13:49.987Z,15.93
2019-06-26T06:16:18.779Z,15.87
2019-06-26T06:18:47.455Z,15.43
2019-06-26T06:21:16.137Z,13.80
2019-06-26T06:23:44.808Z,14.20
2019-06-26T06:26:13.413Z,14.07
2019-06-26T06:28:42.174Z,14.03
2019-06-26T06:31:10.962Z,14.80
2019-06-26T06:33:39.685Z,14.77
2019-06-26T06:36:09.712Z,14.17
2019-06-26T06:38:40.346Z,15.03
2019-06-26T06:41:09.048Z,14.60
2019-06-26T06:43:37.718Z,14.10
2019-06-26T06:46:06.475Z,14.10
2019-06-26T06:48:35.216Z,14.38
2019-06-26T06:51:05.110Z,14.63
2019-06-26T06:53:33.808Z,15.05
2019-06-26T06:56:02.480Z,14.85
2019-06-26T06:58:31.254Z,13.98
2019-06-26T07:00:59.866Z,14.95
2019-06-26T07:03:28.500Z,14.03
2019-06-26T07:05:57.175Z,13.90
2019-06-26T07:08:25.846Z,13.62
2019-06-26T07:10:54.468Z,13.40
2019-06-26T07:13:23.255Z,13.65
2019-06-26T07:15:53.058Z,13.65
2019-06-26T07:18:21.729Z,13.15
2019-06-26T07:20:50.419Z,13.95
2019-06-26T07:23:19.062Z,13.70
2019-06-26T07:25:47.845Z,13.80
2019-06-26T07:28:16.541Z,13.65
2019-06-26T07:30:46.650Z,13.15
2019-06-26T07:33:15.405Z,12.88
2019-06-26T07:35:44.136Z,13.03
2019-06-26T07:38:12.751Z,12.68
2019-06-26T07:40:41.389Z,12.28
2019-06-26T07:43:10.070Z,11.78
2019-06-26T07:45:38.759Z,11.00
2019-06-26T07:48:07.470Z,11.50
2019-06-26T07:50:36.069Z,10.90
2019-06-26T07:53:04.978Z,10.63
2019-06-26T07:55:33.723Z,11.22
2019-06-26T07:58:02.392Z,11.78
2019-06-26T08:00:31.868Z,11.30
2019-06-26T08:03:04.091Z,11.28
2019-06-26T08:05:31.046Z,11.95
2019-06-26T08:07:59.695Z,11.10
2019-06-26T08:10:28.467Z,10.55
2019-06-26T08:12:57.239Z,11.57
2019-06-26T08:15:25.922Z,10.43
2019-06-26T08:18:00.574Z,11.18
2019-06-26T08:20:24.886Z,10.82
2019-06-26T08:22:53.537Z,11.20
2019-06-26T08:25:22.237Z,10.58
2019-06-26T08:27:50.871Z,10.43
2019-06-26T08:30:19.901Z,11.28
2019-06-26T08:32:48.684Z,11.75
2019-06-26T08:35:17.443Z,10.68
2019-06-26T08:37:46.149Z,10.58
2019-06-26T08:40:15.172Z,10.25
2019-06-26T08:42:43.851Z,11.93
2019-06-26T08:45:13.059Z,10.45
2019-06-26T08:47:41.680Z,10.95
2019-06-26T08:50:12.028Z,11.10
2019-06-26T08:52:40.739Z,11.55
2019-06-26T08:55:09.627Z,10.82
2019-06-26T08:57:38.295Z,10.72
2019-06-26T09:00:09.421Z,11.40
2019-06-26T09:02:38.130Z,11.22
2019-06-26T09:05:07.420Z,11.05
2019-06-26T09:07:36.190Z,10.90
2019-06-26T09:10:09.407Z,10.50
2019-06-26T09:12:38.080Z,11.60
2019-06-26T09:15:07.591Z,10.20
2019-06-26T09:17:36.572Z,10.90
2019-06-26T09:20:06.984Z,10.85
2019-06-26T09:22:35.664Z,11.03
2019-06-26T09:25:20.860Z,10.65
2019-06-26T09:27:37.486Z,11.03
2019-06-26T09:30:09.358Z,11.25
2019-06-26T09:32:39.659Z,10.75
2019-06-26T09:35:09.302Z,10.05
2019-06-26T09:37:38.021Z,11.30
2019-06-26T09:40:07.240Z,10.60
2019-06-26T09:42:35.914Z,10.65
2019-06-26T09:45:06.766Z,11.28
2019-06-26T09:47:35.458Z,10.23
2019-06-26T09:50:08.954Z,10.30
2019-06-26T09:52:37.632Z,10.65
2019-06-26T09:55:06.941Z,10.48
2019-06-26T09:57:35.751Z,10.10
2019-06-26T10:00:09.590Z,11.53
2019-06-26T10:02:38.231Z,10.18
2019-06-26T10:05:07.191Z,10.30
2019-06-26T10:07:35.807Z,10.80
2019-06-26T10:10:05.138Z,11.00
2019-06-26T10:12:33.742Z,10.72
2019-06-26T10:15:02.372Z,10.78
2019-06-26T10:17:31.040Z,10.72
2019-06-26T10:19:59.680Z,10.98
2019-06-26T10:22:28.360Z,10.72
2019-06-26T10:24:56.997Z,10.95
2019-06-26T10:27:25.679Z,10.48
2019-06-26T10:29:54.382Z,10.78
2019-06-26T10:32:22.986Z,10.82
2019-06-26T10:34:51.590Z,11.15
2019-06-26T10:37:20.214Z,10.90
2019-06-26T10:39:48.842Z,10.38
2019-06-26T10:42:17.654Z,10.53
2019-06-26T10:44:46.290Z,10.70
2019-06-26T10:47:14.899Z,11.15
2019-06-26T10:49:43.608Z,10.48
2019-06-26T10:52:12.303Z,10.75
2019-06-26T10:54:44.173Z,10.58
2019-06-26T10:57:11.406Z,10.20
2019-06-26T10:59:40.177Z,10.48
2019-06-26T11:02:09.544Z,9.63
2019-06-26T11:04:38.187Z,10.08
2019-06-26T11:07:06.823Z,9.93
2019-06-26T11:09:35.527Z,9.55
2019-06-26T11:12:04.205Z,9.63
2019-06-26T11:14:32.932Z,10.13
2019-06-26T11:17:01.649Z,9.23
2019-06-26T11:19:43.462Z,10.13
2019-06-26T11:22:00.734Z,10.10
2019-06-26T11:24:29.485Z,9.55
2019-06-26T11:26:58.167Z,9.60
2019-06-26T11:29:26.882Z,9.70
2019-06-26T11:31:55.555Z,9.70
2019-06-26T11:34:24.268Z,11.95
2019-06-26T11:37:03.058Z,9.70
2019-06-26T11:39:23.305Z,9.75
2019-06-26T11:41:52.038Z,9.53
2019-06-26T11:44:20.727Z,9.90
2019-06-26T11:46:49.630Z,9.95
2019-06-26T11:49:18.272Z,9.75
2019-06-26T11:51:46.911Z,11.33
2019-06-26T11:54:15.586Z,10.88
2019-06-26T11:56:44.203Z,10.13
2019-06-26T11:59:12.837Z,9.95
2019-06-26T12:01:41.539Z,10.03
2019-06-26T12:04:10.223Z,10.08
2019-06-26T12:06:38.842Z,9.78
2019-06-26T12:09:08.767Z,10.13
2019-06-26T12:11:37.499Z,9.80
2019-06-26T12:14:06.218Z,10.38
2019-06-26T12:16:34.900Z,9.83
2019-06-26T12:19:03.643Z,10.03
2019-06-26T12:21:32.350Z,10.70
2019-06-26T12:24:01.067Z,9.98
2019-06-26T12:26:29.701Z,9.90
2019-06-26T12:28:58.312Z,9.68
2019-06-26T12:31:26.985Z,9.95
2019-06-26T12:33:55.647Z,9.80
2019-06-26T12:36:24.258Z,10.15
2019-06-26T12:38:52.961Z,9.38
2019-06-26T12:41:21.668Z,9.98
2019-06-26T12:43:50.362Z,9.33
2019-06-26T12:46:19.167Z,9.83
2019-06-26T12:48:47.910Z,9.65
2019-06-26T12:51:16.644Z,9.20
2019-06-26T12:53:45.502Z,8.73
2019-06-26T12:56:14.124Z,9.13
2019-06-26T12:58:42.831Z,7.83
2019-06-26T13:01:11.445Z,8.10
2019-06-26T13:03:40.128Z,6.78
2019-06-26T13:06:08.857Z,7.17
2019-06-26T13:08:37.578Z,7.37
2019-06-26T13:11:06.205Z,6.22
2019-06-26T13:13:34.805Z,6.92
2019-06-26T13:16:03.528Z,6.47
2019-06-26T13:18:32.202Z,7.22
2019-06-26T13:21:04.736Z,7.20
2019-06-26T13:23:31.292Z,7.05
2019-06-26T13:25:59.975Z,6.85
2019-06-26T13:28:28.758Z,6.92
2019-06-26T13:30:57.447Z,6.97
2019-06-26T13:33:26.107Z,7.00
2019-06-26T13:35:54.810Z,7.17
2019-06-26T13:38:26.976Z,7.17
2019-06-26T13:40:53.929Z,7.25
2019-06-26T13:43:22.700Z,7.20
2019-06-26T13:45:51.491Z,6.97
2019-06-26T13:48:20.195Z,7.12
2019-06-26T13:50:48.882Z,7.30
2019-06-26T13:53:17.591Z,7.37
2019-06-26T13:55:46.321Z,8.10
2019-06-26T13:58:15.007Z,8.20
2019-06-26T14:00:43.753Z,8.70
2019-06-26T14:03:12.459Z,8.68
2019-06-26T14:05:41.062Z,9.18
2019-06-26T14:08:09.835Z,10.03
2019-06-26T14:10:38.460Z,10.35
2019-06-26T14:13:07.187Z,9.88
2019-06-26T14:15:35.790Z,10.20
2019-06-26T14:18:04.703Z,11.03
2019-06-26T14:20:33.399Z,10.90
2019-06-26T14:23:02.361Z,10.63
2019-06-26T14:25:31.013Z,10.65
2019-06-26T14:27:59.693Z,10.98
2019-06-26T14:30:28.357Z,11.28
2019-06-26T14:32:57.070Z,10.95
2019-06-26T14:35:25.794Z,11.05
2019-06-26T14:37:54.546Z,10.80
2019-06-26T14:40:23.351Z,10.93
2019-06-26T14:42:52.099Z,10.80
2019-06-26T14:45:20.815Z,10.23
2019-06-26T14:47:49.575Z,10.38
2019-06-26T14:50:18.746Z,11.35
2019-06-26T14:52:47.499Z,10.30
2019-06-26T14:55:16.448Z,10.00
2019-06-26T14:57:45.200Z,10.40
2019-06-26T15:00:15.754Z,10.13
2019-06-26T15:02:44.467Z,10.30
2019-06-26T15:05:14.524Z,11.55
2019-06-26T15:07:43.311Z,11.08
2019-06-26T15:10:12.137Z,11.15
2019-06-26T15:12:40.896Z,11.30
2019-06-26T15:15:12.282Z,11.40
2019-06-26T15:17:41.106Z,11.53
2019-06-26T15:20:10.150Z,11.68
2019-06-26T15:22:38.895Z,11.63
2019-06-26T15:25:08.114Z,11.57
2019-06-26T15:27:39.147Z,11.57
2019-06-26T15:30:08.674Z,11.55
2019-06-26T15:32:37.419Z,11.43
2019-06-26T15:35:10.025Z,11.68
2019-06-26T15:37:38.780Z,11.50
2019-06-26T15:40:07.947Z,11.83
2019-06-26T15:42:36.704Z,12.45
2019-06-26T15:45:07.397Z,12.58
2019-06-26T15:47:36.254Z,12.65
2019-06-26T15:50:10.811Z,11.65
2019-06-26T15:52:39.144Z,12.00
2019-06-26T15:55:08.396Z,12.33
2019-06-26T15:57:37.101Z,12.45
2019-06-26T16:00:08.095Z,11.70
2019-06-26T16:02:36.838Z,11.65
2019-06-26T16:05:07.333Z,12.13
2019-06-26T16:07:36.107Z,11.45
2019-06-26T16:10:06.539Z,13.10
2019-06-26T16:12:35.291Z,13.32
2019-06-26T16:15:05.444Z,12.40
2019-06-26T16:17:44.771Z,12.75
2019-06-26T16:20:13.879Z,13.30
2019-06-26T16:22:43.448Z,13.25
2019-06-26T16:25:13.667Z,12.68
2019-06-26T16:27:42.427Z,12.07
2019-06-26T16:30:13.312Z,11.95
2019-06-26T16:32:42.088Z,12.47
2019-06-26T16:35:12.328Z,12.90
2019-06-26T16:37:41.393Z,13.18
2019-06-26T16:40:10.343Z,12.95
2019-06-26T16:42:39.152Z,12.90
2019-06-26T16:45:08.518Z,13.53
2019-06-26T16:47:37.237Z,12.75
2019-06-26T16:50:07.363Z,12.50
2019-06-26T16:52:48.550Z,12.37
2019-06-26T16:55:07.973Z,13.22
2019-06-26T16:57:36.721Z,15.03
2019-06-26T17:00:10.338Z,12.30
2019-06-26T17:02:39.333Z,11.75
2019-06-26T17:05:08.561Z,12.47
2019-06-26T17:07:37.341Z,11.48
2019-06-26T17:10:09.956Z,12.68
2019-06-26T17:12:38.770Z,12.10
2019-06-26T17:15:08.392Z,11.68
2019-06-26T17:17:37.150Z,11.73
2019-06-26T17:20:07.200Z,11.95
2019-06-26T17:22:36.002Z,11.88
2019-06-26T17:25:05.970Z,12.20
2019-06-26T17:27:34.782Z,18.73
2019-06-26T17:30:05.371Z,12.37
2019-06-26T17:32:34.190Z,11.80
2019-06-26T17:35:02.892Z,12.05
2019-06-26T17:37:31.707Z,12.03
2019-06-26T17:40:00.433Z,11.60
2019-06-26T17:42:29.256Z,11.15
2019-06-26T17:44:58.062Z,11.80
2019-06-26T17:47:26.788Z,11.88
2019-06-26T17:49:55.611Z,12.13
2019-06-26T17:52:24.353Z,12.70
2019-06-26T17:54:53.178Z,12.18
2019-06-26T17:57:21.891Z,12.55
2019-06-26T17:59:50.715Z,12.58
2019-06-26T18:02:19.471Z,12.65
2019-06-26T18:04:48.300Z,12.20
2019-06-26T18:07:17.113Z,12.60
2019-06-26T18:09:45.904Z,12.30
2019-06-26T18:12:14.668Z,12.80
2019-06-26T18:14:43.517Z,12.00
2019-06-26T18:17:22.188Z,13.43
2019-06-26T18:19:42.738Z,12.43
2019-06-26T18:22:11.502Z,14.03
2019-06-26T18:24:40.269Z,14.85
2019-06-26T18:27:09.016Z,12.07
2019-06-26T18:29:37.809Z,13.03
2019-06-26T18:32:06.696Z,12.50
2019-06-26T18:34:35.357Z,21.45
2019-06-26T18:37:04.195Z,18.92
2019-06-26T18:39:33.019Z,21.10
2019-06-26T18:42:01.736Z,32.23
2019-06-26T18:44:30.527Z,22.35
2019-06-26T18:46:59.336Z,16.70
2019-06-26T18:49:28.128Z,15.08
2019-06-26T18:51:56.843Z,19.45
2019-06-26T18:54:25.644Z,16.25
2019-06-26T18:56:54.425Z,37.93
2019-06-26T18:59:23.256Z,31.50
2019-06-26T19:01:51.955Z,27.52
2019-06-26T19:04:20.703Z,18.50
2019-06-26T19:06:49.456Z,15.32
2019-06-26T19:09:18.244Z,14.98
2019-06-26T19:11:47.088Z,16.20
2019-06-26T19:14:15.879Z,15.80
2019-06-26T19:16:44.657Z,19.60
2019-06-26T19:19:15.340Z,28.77
2019-06-26T19:21:44.092Z,36.77
2019-06-26T19:24:12.924Z,28.40
2019-06-26T19:27:01.021Z,26.77
2019-06-26T19:29:29.766Z,21.48
2019-06-26T19:31:58.573Z,18.48
2019-06-26T19:34:27.316Z,16.75
2019-06-26T19:36:56.129Z,19.32
2019-06-26T19:39:24.940Z,18.90
2019-06-26T19:41:53.682Z,18.02
2019-06-26T19:44:22.504Z,16.87
2019-06-26T19:46:51.222Z,16.27
2019-06-26T19:49:20.039Z,16.50
2019-06-26T19:51:48.771Z,16.82
2019-06-26T19:54:26.965Z,16.97
2019-06-26T19:56:47.978Z,18.20
2019-06-26T19:59:16.699Z,18.42
2019-06-26T20:01:45.471Z,15.85
2019-06-26T20:04:14.252Z,16.62
2019-06-26T20:06:43.023Z,20.15
2019-06-26T20:09:11.845Z,29.32
2019-06-26T20:11:40.697Z,28.00
2019-06-26T20:14:09.406Z,21.77
2019-06-26T20:16:38.187Z,18.65
2019-06-26T20:19:06.937Z,21.15
2019-06-26T20:21:35.757Z,25.17
2019-06-26T20:24:04.540Z,25.70
2019-06-26T20:26:33.325Z,23.83
2019-06-26T20:29:02.055Z,24.63
2019-06-26T20:31:30.775Z,19.73
2019-06-26T20:33:59.619Z,18.65
2019-06-26T20:36:28.347Z,19.85
2019-06-26T20:38:57.091Z,26.15
2019-06-26T20:41:26.014Z,25.10
2019-06-26T20:43:54.767Z,32.98
2019-06-26T20:46:23.559Z,25.90
2019-06-26T20:48:53.831Z,26.15
2019-06-26T20:51:22.575Z,23.18
2019-06-26T20:53:51.338Z,25.95
2019-06-26T20:56:20.085Z,26.02
2019-06-26T20:58:48.849Z,21.15
2019-06-26T21:01:17.553Z,19.82
2019-06-26T21:03:46.419Z,18.55
2019-06-26T21:06:15.115Z,18.40
2019-06-26T21:08:43.875Z,18.45
2019-06-26T21:11:15.637Z,18.67
2019-06-26T21:13:43.005Z,18.95
2019-06-26T21:16:11.763Z,18.42
2019-06-26T21:18:40.538Z,19.40
2019-06-26T21:21:09.348Z,20.15
2019-06-26T21:23:38.085Z,20.23
2019-06-26T21:26:06.869Z,19.37
2019-06-26T21:28:35.586Z,19.50
2019-06-26T21:31:04.393Z,21.67
2019-06-26T21:33:33.144Z,22.13
2019-06-26T21:36:01.866Z,22.67
2019-06-26T21:38:30.579Z,23.30
2019-06-26T21:40:59.329Z,22.07
2019-06-26T21:43:28.040Z,25.47
2019-06-26T21:45:56.803Z,22.65
2019-06-26T21:48:25.592Z,23.63
2019-06-26T21:50:54.346Z,23.60
2019-06-26T21:53:23.063Z,25.07
2019-06-26T21:55:51.814Z,22.87
2019-06-26T21:58:20.656Z,21.73
2019-06-26T22:00:49.474Z,22.57
2019-06-26T22:03:18.288Z,20.93
2019-06-26T22:05:47.120Z,21.73
2019-06-26T22:08:15.968Z,22.30
2019-06-26T22:10:44.748Z,22.40
2019-06-26T22:13:13.501Z,22.83
2019-06-26T22:15:42.217Z,22.53
2019-06-26T22:18:11.036Z,22.37
2019-06-26T22:20:39.755Z,21.80
2019-06-26T22:23:08.596Z,21.90
2019-06-26T22:25:50.282Z,20.97
2019-06-26T22:28:07.793Z,21.50
2019-06-26T22:30:36.499Z,21.20
2019-06-26T22:33:05.355Z,21.10
2019-06-26T22:35:34.119Z,21.40
2019-06-26T22:38:02.845Z,21.53
2019-06-26T22:40:31.615Z,21.60
2019-06-26T22:43:00.347Z,21.60
2019-06-26T22:45:29.160Z,22.13
2019-06-26T22:47:57.984Z,22.17
2019-06-26T22:50:26.707Z,21.13
2019-06-26T22:52:55.425Z,20.87
2019-06-26T22:55:24.176Z,20.87
2019-06-26T22:57:53.001Z,20.40
2019-06-26T23:00:21.865Z,21.10
2019-06-26T23:02:50.636Z,20.70
2019-06-26T23:05:19.393Z,20.40
2019-06-26T23:07:48.133Z,19.47
2019-06-26T23:10:17.187Z,20.43
2019-06-26T23:12:45.904Z,19.40
2019-06-26T23:15:15.072Z,18.50
2019-06-26T23:17:43.801Z,18.83
2019-06-26T23:20:12.620Z,18.77
2019-06-26T23:22:41.398Z,17.10
2019-06-26T23:25:10.191Z,18.20
2019-06-26T23:27:38.861Z,18.47
2019-06-26T23:30:21.411Z,17.57
2019-06-26T23:32:49.798Z,18.77
2019-06-26T23:35:18.403Z,18.70
2019-06-26T23:37:47.056Z,19.17
2019-06-26T23:40:16.103Z,18.00
2019-06-26T23:42:44.801Z,16.93
2019-06-26T23:45:13.400Z,17.80
2019-06-26T23:47:41.964Z,17.33
2019-06-26T23:50:10.677Z,18.13
2019-06-26T23:52:39.420Z,18.43
2019-06-26T23:55:08.273Z,17.67
2019-06-26T23:57:44.270Z,18.40
